createdAt,value
2019-01-05T00:00:29.923Z,0.00
2019-01-05T00:01:29.881Z,0.00
2019-01-05T00:02:29.757Z,0.00
2019-01-05T00:03:29.673Z,0.00
2019-01-05T00:04:29.590Z,0.00
2019-01-05T00:05:29.506Z,0.00
2019-01-05T00:06:29.423Z,0.00
2019-01-05T00:07:29.341Z,0.00
2019-01-05T00:08:29.256Z,0.00
2019-01-05T00:09:29.207Z,0.00
2019-01-05T00:10:29.089Z,0.00
2019-01-05T00:11:29.006Z,0.00
2019-01-05T00:12:28.923Z,0.00
2019-01-05T00:13:28.838Z,0.00
2019-01-05T00:14:28.754Z,0.00
2019-01-05T00:15:28.676Z,0.00
2019-01-05T00:16:28.590Z,0.00
2019-01-05T00:17:28.505Z,0.00
2019-01-05T00:18:28.422Z,0.00
2019-01-05T00:19:28.341Z,0.00
2019-01-05T00:20:28.254Z,0.00
2019-01-05T00:21:28.174Z,0.00
2019-01-05T00:22:28.087Z,0.00
2019-01-05T00:23:28.002Z,0.00
2019-01-05T00:24:27.919Z,0.00
2019-01-05T00:25:27.836Z,0.00
2019-01-05T00:26:27.751Z,0.00
2019-01-05T00:27:27.668Z,0.00
2019-01-05T00:28:27.586Z,0.00
2019-01-05T00:29:27.502Z,0.00
2019-01-05T00:30:27.416Z,0.00
2019-01-05T00:31:27.383Z,0.00
2019-01-05T00:32:27.258Z,0.00
2019-01-05T00:33:27.166Z,0.00
2019-01-05T00:34:27.084Z,0.00
2019-01-05T00:35:26.998Z,0.00
2019-01-05T00:36:26.915Z,0.00
2019-01-05T00:37:26.930Z,0.00
2019-01-05T00:38:26.748Z,0.00
2019-01-05T00:39:26.696Z,0.00
2019-01-05T00:40:26.581Z,0.00
2019-01-05T00:41:26.498Z,0.00
2019-01-05T00:42:26.412Z,0.00
2019-01-05T00:43:26.380Z,0.00
2019-01-05T00:44:26.247Z,0.00
2019-01-05T00:45:26.171Z,0.00
2019-01-05T00:46:26.080Z,0.00
2019-01-05T00:47:25.996Z,0.00
2019-01-05T00:48:25.913Z,0.00
2019-01-05T00:49:25.881Z,0.00
2019-01-05T00:50:25.747Z,0.00
2019-01-05T00:51:25.661Z,0.00
2019-01-05T00:52:25.579Z,0.00
2019-01-05T00:53:25.497Z,0.00
2019-01-05T00:54:25.412Z,0.00
2019-01-05T00:55:25.328Z,0.00
2019-01-05T00:56:25.246Z,0.00
2019-01-05T00:57:25.162Z,0.00
2019-01-05T00:58:25.078Z,0.00
2019-01-05T00:59:24.994Z,0.00
2019-01-05T01:00:24.911Z,0.00
2019-01-05T01:01:24.829Z,0.00
2019-01-05T01:02:24.744Z,0.00
2019-01-05T01:03:24.660Z,0.00
2019-01-05T01:04:24.577Z,0.00
2019-01-05T01:05:24.493Z,0.00
2019-01-05T01:06:24.409Z,0.00
2019-01-05T01:07:24.325Z,0.00
2019-01-05T01:08:24.243Z,0.00
2019-01-05T01:09:24.159Z,0.00
2019-01-05T01:10:24.074Z,0.00
2019-01-05T01:11:23.991Z,0.00
2019-01-05T01:12:23.907Z,0.00
2019-01-05T01:13:23.823Z,0.00
2019-01-05T01:14:23.740Z,0.00
2019-01-05T01:15:23.656Z,0.00
2019-01-05T01:16:23.574Z,0.00
2019-01-05T01:17:23.490Z,0.00
2019-01-05T01:18:23.405Z,0.00
2019-01-05T01:19:23.321Z,0.00
2019-01-05T01:20:23.240Z,0.00
2019-01-05T01:21:23.155Z,0.00
2019-01-05T01:22:23.070Z,0.00
2019-01-05T01:23:22.987Z,0.00
2019-01-05T01:24:22.905Z,0.00
2019-01-05T01:25:22.875Z,0.00
2019-01-05T01:26:22.736Z,0.00
2019-01-05T01:27:22.652Z,0.00
2019-01-05T01:28:22.569Z,0.00
2019-01-05T01:29:22.487Z,0.00
2019-01-05T01:30:22.402Z,0.00
2019-01-05T01:31:22.320Z,0.00
2019-01-05T01:32:22.236Z,0.00
2019-01-05T01:33:22.152Z,0.00
2019-01-05T01:34:22.069Z,0.00
2019-01-05T01:35:21.985Z,0.00
2019-01-05T01:36:21.901Z,0.00
2019-01-05T01:37:21.817Z,0.00
2019-01-05T01:38:21.763Z,0.00
2019-01-05T01:39:21.651Z,0.00
2019-01-05T01:40:21.567Z,0.00
2019-01-05T01:41:21.484Z,0.00
2019-01-05T01:42:21.398Z,0.00
2019-01-05T01:43:21.315Z,0.00
2019-01-05T01:44:21.232Z,0.00
2019-01-05T01:45:21.149Z,0.00
2019-01-05T01:46:21.064Z,0.00
2019-01-05T01:47:21.031Z,0.00
2019-01-05T01:48:20.900Z,0.00
2019-01-05T01:49:20.814Z,0.00
2019-01-05T01:50:20.731Z,0.00
2019-01-05T01:51:20.670Z,0.00
2019-01-05T01:52:20.613Z,0.00
2019-01-05T01:53:20.478Z,0.00
2019-01-05T01:54:20.395Z,0.00
2019-01-05T01:55:20.312Z,0.00
2019-01-05T01:56:20.227Z,0.00
2019-01-05T01:57:20.145Z,0.00
2019-01-05T01:58:20.060Z,0.00
2019-01-05T01:59:19.977Z,0.00
2019-01-05T02:00:19.894Z,0.00
2019-01-05T02:01:19.811Z,0.00
2019-01-05T02:02:19.726Z,0.00
2019-01-05T02:03:19.692Z,0.00
2019-01-05T02:04:19.560Z,0.00
2019-01-05T02:05:19.476Z,0.00
2019-01-05T02:06:19.392Z,0.00
2019-01-05T02:07:19.308Z,0.00
2019-01-05T02:08:19.226Z,0.00
2019-01-05T02:09:19.141Z,0.00
2019-01-05T02:10:19.057Z,0.00
2019-01-05T02:11:18.975Z,0.00
2019-01-05T02:12:18.891Z,0.00
2019-01-05T02:13:18.807Z,0.00
2019-01-05T02:14:18.723Z,0.00
2019-01-05T02:15:18.639Z,0.00
2019-01-05T02:16:18.555Z,0.00
2019-01-05T02:17:18.474Z,0.00
2019-01-05T02:18:18.395Z,0.00
2019-01-05T02:19:18.405Z,0.00
2019-01-05T02:20:18.224Z,0.00
2019-01-05T02:21:18.138Z,0.00
2019-01-05T02:22:18.056Z,0.00
2019-01-05T02:23:17.970Z,0.00
2019-01-05T02:24:17.888Z,0.00
2019-01-05T02:25:17.805Z,0.00
2019-01-05T02:26:17.721Z,0.00
2019-01-05T02:27:17.637Z,0.00
2019-01-05T02:28:17.554Z,0.00
2019-01-05T02:29:17.471Z,0.00
2019-01-05T02:30:17.393Z,0.00
2019-01-05T02:31:17.305Z,0.00
2019-01-05T02:32:17.220Z,0.00
2019-01-05T02:33:17.137Z,0.00
2019-01-05T02:34:17.062Z,0.00
2019-01-05T02:35:16.973Z,0.00
2019-01-05T02:36:16.900Z,0.00
2019-01-05T02:37:16.806Z,0.00
2019-01-05T02:38:16.723Z,0.00
2019-01-05T02:39:16.639Z,0.00
2019-01-05T02:40:16.557Z,0.00
2019-01-05T02:41:16.471Z,0.00
2019-01-05T02:42:16.392Z,0.00
2019-01-05T02:43:16.304Z,0.00
2019-01-05T02:44:16.270Z,0.00
2019-01-05T02:45:16.148Z,0.00
2019-01-05T02:46:16.054Z,0.00
2019-01-05T02:47:15.971Z,0.00
2019-01-05T02:48:15.887Z,0.00
2019-01-05T02:49:16.054Z,0.00
2019-01-05T02:50:15.718Z,0.00
2019-01-05T02:51:15.640Z,0.00
2019-01-05T02:52:15.553Z,0.00
2019-01-05T02:53:15.470Z,0.00
2019-01-05T02:54:15.385Z,0.00
2019-01-05T02:55:15.303Z,0.00
2019-01-05T02:56:15.218Z,0.00
2019-01-05T02:57:15.135Z,0.00
2019-01-05T02:58:15.050Z,0.00
2019-01-05T02:59:14.966Z,0.00
2019-01-05T03:00:14.889Z,0.00
2019-01-05T03:01:14.798Z,0.00
2019-01-05T03:02:14.716Z,0.00
2019-01-05T03:03:14.632Z,0.00
2019-01-05T03:04:14.548Z,0.00
2019-01-05T03:05:14.466Z,0.00
2019-01-05T03:06:14.483Z,0.00
2019-01-05T03:07:14.309Z,0.00
2019-01-05T03:08:14.215Z,0.00
2019-01-05T03:09:14.132Z,0.00
2019-01-05T03:10:14.051Z,0.00
2019-01-05T03:11:14.065Z,0.00
2019-01-05T03:12:13.881Z,0.00
2019-01-05T03:13:13.799Z,0.00
2019-01-05T03:14:13.711Z,0.00
2019-01-05T03:15:13.628Z,0.00
2019-01-05T03:16:13.546Z,0.00
2019-01-05T03:17:13.461Z,0.00
2019-01-05T03:18:13.378Z,0.00
2019-01-05T03:19:13.294Z,0.00
2019-01-05T03:20:13.256Z,0.00
2019-01-05T03:21:13.129Z,0.00
2019-01-05T03:22:13.044Z,0.00
2019-01-05T03:23:12.968Z,0.00
2019-01-05T03:24:12.877Z,0.00
2019-01-05T03:25:12.793Z,0.00
2019-01-05T03:26:12.710Z,0.00
2019-01-05T03:27:12.684Z,0.00
2019-01-05T03:28:12.544Z,0.00
2019-01-05T03:29:12.462Z,0.00
2019-01-05T03:30:12.377Z,0.00
2019-01-05T03:31:12.293Z,0.00
2019-01-05T03:32:12.208Z,0.00
2019-01-05T03:33:12.125Z,0.00
2019-01-05T03:34:12.040Z,0.00
2019-01-05T03:35:11.957Z,0.00
2019-01-05T03:36:11.873Z,0.00
2019-01-05T03:37:11.789Z,0.00
2019-01-05T03:38:11.706Z,0.00
2019-01-05T03:39:11.620Z,0.00
2019-01-05T03:40:11.543Z,0.00
2019-01-05T03:41:11.455Z,0.00
2019-01-05T03:42:11.371Z,0.00
2019-01-05T03:43:11.288Z,0.00
2019-01-05T03:44:11.205Z,0.00
2019-01-05T03:45:11.119Z,0.00
2019-01-05T03:46:11.035Z,0.00
2019-01-05T03:47:10.954Z,0.00
2019-01-05T03:48:10.869Z,0.00
2019-01-05T03:49:10.786Z,0.00
2019-01-05T03:50:10.701Z,0.00
2019-01-05T03:51:10.617Z,0.00
2019-01-05T03:52:10.533Z,0.00
2019-01-05T03:53:10.502Z,0.00
2019-01-05T03:54:10.365Z,0.00
2019-01-05T03:55:10.284Z,0.00
2019-01-05T03:56:10.199Z,0.00
2019-01-05T03:57:10.114Z,0.00
2019-01-05T03:58:10.031Z,0.00
2019-01-05T03:59:10.200Z,0.00
2019-01-05T04:00:09.868Z,0.00
2019-01-05T04:01:09.781Z,0.00
2019-01-05T04:02:09.696Z,0.00
2019-01-05T04:03:09.613Z,0.00
2019-01-05T04:04:09.534Z,0.00
2019-01-05T04:05:09.445Z,0.00
2019-01-05T04:06:09.364Z,0.00
2019-01-05T04:07:09.278Z,0.00
2019-01-05T04:08:09.196Z,0.00
2019-01-05T04:09:09.111Z,0.00
2019-01-05T04:10:09.026Z,0.00
2019-01-05T04:11:08.944Z,0.00
2019-01-05T04:12:08.861Z,0.00
2019-01-05T04:13:08.779Z,0.00
2019-01-05T04:14:08.693Z,0.00
2019-01-05T04:15:08.611Z,0.00
2019-01-05T04:16:08.527Z,0.00
2019-01-05T04:17:08.443Z,0.00
2019-01-05T04:18:08.358Z,0.00
2019-01-05T04:19:08.281Z,0.00
2019-01-05T04:20:08.193Z,0.00
2019-01-05T04:21:08.108Z,0.00
2019-01-05T04:22:08.026Z,0.00
2019-01-05T04:23:07.941Z,0.00
2019-01-05T04:24:07.858Z,0.00
2019-01-05T04:25:07.775Z,0.00
2019-01-05T04:26:07.694Z,0.00
2019-01-05T04:27:07.606Z,0.00
2019-01-05T04:28:07.522Z,0.00
2019-01-05T04:29:07.441Z,0.00
2019-01-05T04:30:07.357Z,0.00
2019-01-05T04:31:07.272Z,0.00
2019-01-05T04:32:07.189Z,0.00
2019-01-05T04:33:07.105Z,0.00
2019-01-05T04:34:07.020Z,0.00
2019-01-05T04:35:06.940Z,0.00
2019-01-05T04:36:06.854Z,0.00
2019-01-05T04:37:06.770Z,0.00
2019-01-05T04:38:06.686Z,0.00
2019-01-05T04:39:06.602Z,0.00
2019-01-05T04:40:06.521Z,0.00
2019-01-05T04:41:06.435Z,0.00
2019-01-05T04:42:06.350Z,0.00
2019-01-05T04:43:06.368Z,0.00
2019-01-05T04:44:06.183Z,0.00
2019-01-05T04:45:06.098Z,0.00
2019-01-05T04:46:06.014Z,0.00
2019-01-05T04:47:05.930Z,0.00
2019-01-05T04:48:05.846Z,0.00
2019-01-05T04:49:05.762Z,0.00
2019-01-05T04:50:05.679Z,0.00
2019-01-05T04:51:05.596Z,0.00
2019-01-05T04:52:05.512Z,0.00
2019-01-05T04:53:05.431Z,0.00
2019-01-05T04:54:05.344Z,0.00
2019-01-05T04:55:05.259Z,0.00
2019-01-05T04:56:05.179Z,0.00
2019-01-05T04:57:05.091Z,0.00
2019-01-05T04:58:05.010Z,0.00
2019-01-05T04:59:04.926Z,0.00
2019-01-05T05:00:04.842Z,0.00
2019-01-05T05:01:04.757Z,0.00
2019-01-05T05:02:04.672Z,0.00
2019-01-05T05:03:04.626Z,0.00
2019-01-05T05:04:04.504Z,0.00
2019-01-05T05:05:04.420Z,0.00
2019-01-05T05:06:04.336Z,0.00
2019-01-05T05:07:04.252Z,0.00
2019-01-05T05:08:04.168Z,0.00
2019-01-05T05:09:04.090Z,0.00
2019-01-05T05:10:04.001Z,0.00
2019-01-05T05:11:03.917Z,0.00
2019-01-05T05:12:03.833Z,0.00
2019-01-05T05:13:03.750Z,0.00
2019-01-05T05:14:03.669Z,0.00
2019-01-05T05:15:03.583Z,0.00
2019-01-05T05:16:03.510Z,0.00
2019-01-05T05:17:03.415Z,0.00
2019-01-05T05:18:03.329Z,0.00
2019-01-05T05:19:03.244Z,0.00
2019-01-05T05:20:03.162Z,0.00
2019-01-05T05:21:03.078Z,0.00
2019-01-05T05:22:02.994Z,0.00
2019-01-05T05:23:02.911Z,0.00
2019-01-05T05:24:02.825Z,0.00
2019-01-05T05:25:02.742Z,0.00
2019-01-05T05:26:02.656Z,0.00
2019-01-05T05:27:02.572Z,0.00
2019-01-05T05:28:02.489Z,0.00
2019-01-05T05:29:02.405Z,0.00
2019-01-05T05:30:02.320Z,0.00
2019-01-05T05:31:02.239Z,0.00
2019-01-05T05:32:02.152Z,0.00
2019-01-05T05:33:02.070Z,0.00
2019-01-05T05:34:01.985Z,0.00
2019-01-05T05:35:01.901Z,0.00
2019-01-05T05:36:01.816Z,0.00
2019-01-05T05:37:01.735Z,0.00
2019-01-05T05:38:01.648Z,0.00
2019-01-05T05:39:01.563Z,0.00
2019-01-05T05:40:01.530Z,0.00
2019-01-05T05:41:01.395Z,0.00
2019-01-05T05:42:01.315Z,0.00
2019-01-05T05:43:01.227Z,0.00
2019-01-05T05:44:01.144Z,0.00
2019-01-05T05:45:01.059Z,0.00
2019-01-05T05:46:00.973Z,0.00
2019-01-05T05:47:00.890Z,0.00
2019-01-05T05:48:00.807Z,0.00
2019-01-05T05:49:00.722Z,0.00
2019-01-05T05:50:00.637Z,0.00
2019-01-05T05:51:00.553Z,0.00
2019-01-05T05:52:00.470Z,0.00
2019-01-05T05:53:00.395Z,0.00
2019-01-05T05:54:00.301Z,0.00
2019-01-05T05:55:00.221Z,0.00
2019-01-05T05:56:00.136Z,0.00
2019-01-05T05:57:00.049Z,0.00
2019-01-05T05:57:59.966Z,0.00
2019-01-05T05:58:59.880Z,0.00
2019-01-05T05:59:59.798Z,0.00
2019-01-05T06:00:59.712Z,0.00
2019-01-05T06:01:59.627Z,0.00
2019-01-05T06:02:59.543Z,0.00
2019-01-05T06:03:59.463Z,0.00
2019-01-05T06:04:59.376Z,0.00
2019-01-05T06:05:59.291Z,0.00
2019-01-05T06:06:59.207Z,0.00
2019-01-05T06:07:59.123Z,0.00
2019-01-05T06:08:59.040Z,0.00
2019-01-05T06:09:58.954Z,0.00
2019-01-05T06:10:58.870Z,0.00
2019-01-05T06:11:58.788Z,0.00
2019-01-05T06:12:58.706Z,0.00
2019-01-05T06:13:58.617Z,0.00
2019-01-05T06:14:58.556Z,0.00
2019-01-05T06:15:58.449Z,0.00
2019-01-05T06:16:58.367Z,0.00
2019-01-05T06:17:58.281Z,0.00
2019-01-05T06:18:58.199Z,0.00
2019-01-05T06:19:58.113Z,0.00
2019-01-05T06:20:58.032Z,0.00
2019-01-05T06:21:57.944Z,0.00
2019-01-05T06:22:57.861Z,0.00
2019-01-05T06:23:57.778Z,0.00
2019-01-05T06:24:57.693Z,0.00
2019-01-05T06:25:57.607Z,0.00
2019-01-05T06:26:57.525Z,0.00
2019-01-05T06:27:57.441Z,0.00
2019-01-05T06:28:57.355Z,0.00
2019-01-05T06:29:57.272Z,0.00
2019-01-05T06:30:57.188Z,0.00
2019-01-05T06:31:57.104Z,0.00
2019-01-05T06:32:57.020Z,0.00
2019-01-05T06:33:56.935Z,0.00
2019-01-05T06:34:56.853Z,0.00
2019-01-05T06:35:56.768Z,0.00
2019-01-05T06:36:56.684Z,0.00
2019-01-05T06:37:56.597Z,0.00
2019-01-05T06:38:56.514Z,0.00
2019-01-05T06:39:56.431Z,0.00
2019-01-05T06:40:56.347Z,0.00
2019-01-05T06:41:56.511Z,0.00
2019-01-05T06:42:56.178Z,0.00
2019-01-05T06:43:56.094Z,0.00
2019-01-05T06:44:56.010Z,0.00
2019-01-05T06:45:55.925Z,0.00
2019-01-05T06:46:55.841Z,0.00
2019-01-05T06:47:55.757Z,0.00
2019-01-05T06:48:55.674Z,0.00
2019-01-05T06:49:55.587Z,0.00
2019-01-05T06:50:55.504Z,0.00
2019-01-05T06:51:55.420Z,0.00
2019-01-05T06:52:55.343Z,0.00
2019-01-05T06:53:55.252Z,0.00
2019-01-05T06:54:55.167Z,0.00
2019-01-05T06:55:55.086Z,0.00
2019-01-05T06:56:54.999Z,0.00
2019-01-05T06:57:54.914Z,0.00
2019-01-05T06:58:54.830Z,0.00
2019-01-05T06:59:54.748Z,4.00
2019-01-05T07:00:54.663Z,4.00
2019-01-05T07:01:54.578Z,4.00
2019-01-05T07:02:54.494Z,4.00
2019-01-05T07:03:54.411Z,4.00
2019-01-05T07:04:54.327Z,4.00
2019-01-05T07:05:54.243Z,4.00
2019-01-05T07:06:54.158Z,8.00
2019-01-05T07:07:54.179Z,8.00
2019-01-05T07:08:53.991Z,8.00
2019-01-05T07:09:53.905Z,12.00
2019-01-05T07:10:53.823Z,8.00
2019-01-05T07:11:53.737Z,12.00
2019-01-05T07:12:53.658Z,16.00
2019-01-05T07:13:53.570Z,16.00
2019-01-05T07:14:53.487Z,12.00
2019-01-05T07:15:53.402Z,16.00
2019-01-05T07:16:53.318Z,16.00
2019-01-05T07:17:53.238Z,24.00
2019-01-05T07:18:53.153Z,28.00
2019-01-05T07:19:53.065Z,28.00
2019-01-05T07:20:52.982Z,28.00
2019-01-05T07:21:52.898Z,28.00
2019-01-05T07:22:52.814Z,32.00
2019-01-05T07:23:52.730Z,36.00
2019-01-05T07:24:52.645Z,32.00
2019-01-05T07:25:52.561Z,40.00
2019-01-05T07:26:52.477Z,44.00
2019-01-05T07:27:52.493Z,44.00
2019-01-05T07:28:52.312Z,48.00
2019-01-05T07:29:52.225Z,40.00
2019-01-05T07:30:52.143Z,36.00
2019-01-05T07:31:52.057Z,40.00
2019-01-05T07:32:51.976Z,52.00
2019-01-05T07:33:51.888Z,52.00
2019-01-05T07:34:51.808Z,56.00
2019-01-05T07:35:51.722Z,60.00
2019-01-05T07:36:51.638Z,60.00
2019-01-05T07:37:51.554Z,80.00
2019-01-05T07:38:51.470Z,68.00
2019-01-05T07:39:51.387Z,68.00
2019-01-05T07:40:51.303Z,64.00
2019-01-05T07:41:51.218Z,84.00
2019-01-05T07:42:51.235Z,88.00
2019-01-05T07:43:51.050Z,116.00
2019-01-05T07:44:50.967Z,120.00
2019-01-05T07:45:50.882Z,140.00
2019-01-05T07:46:50.798Z,124.00
2019-01-05T07:47:50.813Z,132.00
2019-01-05T07:48:50.631Z,128.00
2019-01-05T07:49:50.546Z,136.00
2019-01-05T07:50:50.461Z,124.00
2019-01-05T07:51:50.379Z,152.00
2019-01-05T07:52:50.296Z,128.00
2019-01-05T07:53:50.209Z,180.00
2019-01-05T07:54:50.125Z,168.00
2019-01-05T07:55:50.042Z,164.00
2019-01-05T07:56:49.957Z,156.00
2019-01-05T07:57:49.874Z,164.00
2019-01-05T07:58:49.789Z,188.00
2019-01-05T07:59:49.706Z,180.00
2019-01-05T08:00:49.626Z,200.00
2019-01-05T08:01:49.539Z,180.00
2019-01-05T08:02:49.453Z,168.00
2019-01-05T08:03:49.370Z,188.00
2019-01-05T08:04:49.286Z,192.00
2019-01-05T08:05:49.201Z,212.00
2019-01-05T08:06:49.118Z,236.00
2019-01-05T08:07:49.034Z,196.00
2019-01-05T08:08:48.951Z,184.00
2019-01-05T08:09:48.865Z,164.00
2019-01-05T08:10:48.782Z,156.00
2019-01-05T08:11:48.697Z,140.00
2019-01-05T08:12:48.619Z,140.00
2019-01-05T08:13:48.530Z,132.00
2019-01-05T08:14:48.447Z,152.00
2019-01-05T08:15:48.362Z,144.00
2019-01-05T08:16:48.279Z,140.00
2019-01-05T08:17:48.195Z,164.00
2019-01-05T08:18:48.112Z,176.00
2019-01-05T08:19:48.027Z,152.00
2019-01-05T08:20:47.944Z,148.00
2019-01-05T08:21:47.859Z,160.00
2019-01-05T08:22:47.779Z,164.00
2019-01-05T08:23:47.691Z,128.00
2019-01-05T08:24:47.609Z,156.00
2019-01-05T08:25:47.524Z,152.00
2019-01-05T08:26:47.441Z,180.00
2019-01-05T08:27:47.357Z,156.00
2019-01-05T08:28:47.274Z,184.00
2019-01-05T08:29:47.190Z,152.00
2019-01-05T08:30:47.106Z,168.00
2019-01-05T08:31:47.023Z,192.00
2019-01-05T08:32:46.939Z,180.00
2019-01-05T08:33:46.854Z,192.00
2019-01-05T08:34:46.772Z,184.00
2019-01-05T08:35:46.687Z,188.00
2019-01-05T08:36:46.604Z,212.00
2019-01-05T08:37:46.521Z,232.00
2019-01-05T08:38:46.437Z,244.00
2019-01-05T08:39:46.353Z,224.00
2019-01-05T08:40:46.272Z,228.00
2019-01-05T08:41:46.186Z,240.00
2019-01-05T08:42:46.103Z,240.00
2019-01-05T08:43:46.020Z,236.00
2019-01-05T08:44:45.936Z,260.00
2019-01-05T08:45:45.850Z,232.00
2019-01-05T08:46:45.767Z,252.00
2019-01-05T08:47:45.685Z,244.00
2019-01-05T08:48:45.605Z,264.00
2019-01-05T08:49:45.520Z,228.00
2019-01-05T08:50:45.434Z,208.00
2019-01-05T08:51:45.351Z,244.00
2019-01-05T08:52:45.269Z,240.00
2019-01-05T08:53:45.185Z,240.00
2019-01-05T08:54:45.101Z,220.00
2019-01-05T08:55:45.017Z,188.00
2019-01-05T08:56:45.035Z,188.00
2019-01-05T08:57:44.851Z,200.00
2019-01-05T08:58:44.768Z,196.00
2019-01-05T08:59:44.686Z,220.00
2019-01-05T09:00:44.602Z,180.00
2019-01-05T09:01:44.519Z,212.00
2019-01-05T09:02:44.435Z,192.00
2019-01-05T09:03:44.352Z,228.00
2019-01-05T09:04:44.270Z,248.00
2019-01-05T09:05:44.186Z,276.00
2019-01-05T09:06:44.106Z,284.00
2019-01-05T09:07:44.024Z,256.00
2019-01-05T09:08:43.937Z,276.00
2019-01-05T09:09:43.853Z,344.00
2019-01-05T09:10:43.769Z,348.00
2019-01-05T09:11:43.687Z,336.00
2019-01-05T09:12:43.603Z,292.00
2019-01-05T09:13:43.519Z,296.00
2019-01-05T09:14:43.436Z,348.00
2019-01-05T09:15:43.352Z,368.00
2019-01-05T09:16:43.270Z,316.00
2019-01-05T09:17:43.436Z,364.00
2019-01-05T09:18:43.104Z,360.00
2019-01-05T09:19:43.020Z,364.00
2019-01-05T09:20:42.938Z,380.00
2019-01-05T09:21:42.853Z,376.00
2019-01-05T09:22:42.873Z,348.00
2019-01-05T09:23:42.688Z,404.00
2019-01-05T09:24:42.604Z,332.00
2019-01-05T09:25:42.520Z,356.00
2019-01-05T09:26:42.439Z,424.00
2019-01-05T09:27:42.354Z,356.00
2019-01-05T09:28:42.273Z,332.00
2019-01-05T09:29:42.188Z,332.00
2019-01-05T09:30:42.104Z,356.00
2019-01-05T09:31:42.021Z,344.00
2019-01-05T09:32:41.941Z,332.00
2019-01-05T09:33:41.856Z,324.00
2019-01-05T09:34:41.773Z,360.00
2019-01-05T09:35:41.690Z,408.00
2019-01-05T09:36:41.607Z,340.00
2019-01-05T09:37:41.524Z,360.00
2019-01-05T09:38:41.446Z,344.00
2019-01-05T09:39:41.357Z,376.00
2019-01-05T09:40:41.275Z,348.00
2019-01-05T09:41:41.196Z,396.00
2019-01-05T09:42:41.110Z,372.00
2019-01-05T09:43:41.026Z,412.00
2019-01-05T09:44:40.944Z,352.00
2019-01-05T09:45:40.861Z,340.00
2019-01-05T09:46:40.780Z,332.00
2019-01-05T09:47:40.695Z,300.00
2019-01-05T09:48:40.615Z,360.00
2019-01-05T09:49:40.545Z,388.00
2019-01-05T09:50:40.449Z,388.00
2019-01-05T09:51:40.364Z,428.00
2019-01-05T09:52:40.281Z,436.00
2019-01-05T09:53:40.247Z,340.00
2019-01-05T09:54:40.119Z,388.00
2019-01-05T09:55:40.032Z,348.00
2019-01-05T09:56:39.949Z,408.00
2019-01-05T09:57:39.869Z,344.00
2019-01-05T09:58:39.784Z,420.00
2019-01-05T09:59:39.702Z,448.00
2019-01-05T10:00:39.620Z,504.00
2019-01-05T10:01:39.537Z,548.00
2019-01-05T10:02:39.453Z,520.00
2019-01-05T10:03:39.371Z,524.00
2019-01-05T10:04:39.288Z,600.00
2019-01-05T10:05:39.204Z,544.00
2019-01-05T10:06:39.121Z,492.00
2019-01-05T10:07:39.039Z,560.00
2019-01-05T10:08:38.960Z,492.00
2019-01-05T10:09:38.875Z,564.00
2019-01-05T10:10:38.792Z,588.00
2019-01-05T10:11:38.708Z,676.00
2019-01-05T10:12:38.625Z,676.00
2019-01-05T10:13:38.543Z,664.00
2019-01-05T10:14:38.460Z,624.00
2019-01-05T10:15:38.628Z,664.00
2019-01-05T10:16:38.296Z,696.00
2019-01-05T10:17:38.212Z,712.00
2019-01-05T10:18:38.130Z,684.00
2019-01-05T10:19:38.047Z,736.00
2019-01-05T10:20:37.964Z,572.00
2019-01-05T10:21:37.882Z,772.00
2019-01-05T10:22:37.798Z,704.00
2019-01-05T10:23:37.715Z,696.00
2019-01-05T10:24:37.635Z,796.00
2019-01-05T10:25:37.550Z,912.00
2019-01-05T10:26:37.471Z,908.00
2019-01-05T10:27:37.386Z,764.00
2019-01-05T10:28:37.303Z,788.00
2019-01-05T10:29:37.220Z,644.00
2019-01-05T10:30:37.238Z,664.00
2019-01-05T10:31:37.056Z,664.00
2019-01-05T10:32:36.976Z,604.00
2019-01-05T10:33:36.890Z,756.00
2019-01-05T10:34:36.808Z,716.00
2019-01-05T10:35:36.727Z,652.00
2019-01-05T10:36:36.644Z,560.00
2019-01-05T10:37:36.567Z,500.00
2019-01-05T10:38:36.478Z,484.00
2019-01-05T10:39:36.396Z,356.00
2019-01-05T10:40:36.315Z,408.00
2019-01-05T10:41:36.232Z,392.00
2019-01-05T10:42:36.149Z,412.00
2019-01-05T10:43:36.066Z,360.00
2019-01-05T10:44:35.984Z,384.00
2019-01-05T10:45:35.901Z,412.00
2019-01-05T10:46:35.818Z,408.00
2019-01-05T10:47:35.737Z,464.00
2019-01-05T10:48:35.654Z,488.00
2019-01-05T10:49:35.571Z,576.00
2019-01-05T10:50:35.488Z,656.00
2019-01-05T10:51:35.407Z,728.00
2019-01-05T10:52:35.708Z,588.00
2019-01-05T10:53:35.241Z,508.00
2019-01-05T10:54:35.159Z,448.00
2019-01-05T10:55:35.077Z,560.00
2019-01-05T10:56:34.994Z,644.00
2019-01-05T10:57:34.910Z,724.00
2019-01-05T10:58:34.829Z,652.00
2019-01-05T10:59:34.746Z,736.00
2019-01-05T11:00:34.664Z,804.00
2019-01-05T11:01:34.586Z,860.00
2019-01-05T11:02:34.498Z,872.00
2019-01-05T11:03:34.416Z,836.00
2019-01-05T11:04:34.334Z,800.00
2019-01-05T11:05:34.252Z,800.00
2019-01-05T11:06:34.168Z,836.00
2019-01-05T11:07:34.086Z,924.00
2019-01-05T11:08:34.007Z,856.00
2019-01-05T11:09:33.921Z,744.00
2019-01-05T11:10:33.844Z,704.00
2019-01-05T11:11:33.806Z,676.00
2019-01-05T11:12:33.674Z,808.00
2019-01-05T11:13:33.591Z,860.00
2019-01-05T11:14:33.508Z,1024.00
2019-01-05T11:15:33.426Z,984.00
2019-01-05T11:16:33.350Z,920.00
2019-01-05T11:17:33.261Z,824.00
2019-01-05T11:18:33.183Z,668.00
2019-01-05T11:19:33.097Z,576.00
2019-01-05T11:20:35.835Z,548.00
2019-01-05T11:21:32.932Z,500.00
2019-01-05T11:22:32.850Z,552.00
2019-01-05T11:23:32.768Z,708.00
2019-01-05T11:24:32.686Z,760.00
2019-01-05T11:25:32.605Z,796.00
2019-01-05T11:26:32.520Z,820.00
2019-01-05T11:27:32.438Z,864.00
2019-01-05T11:28:32.367Z,824.00
2019-01-05T11:29:32.272Z,800.00
2019-01-05T11:30:32.191Z,856.00
2019-01-05T11:31:32.108Z,984.00
2019-01-05T11:32:32.027Z,900.00
2019-01-05T11:33:31.943Z,928.00
2019-01-05T11:34:31.862Z,856.00
2019-01-05T11:35:31.780Z,904.00
2019-01-05T11:36:31.700Z,896.00
2019-01-05T11:37:31.616Z,880.00
2019-01-05T11:38:31.538Z,924.00
2019-01-05T11:39:31.457Z,940.00
2019-01-05T11:40:31.376Z,836.00
2019-01-05T11:41:31.302Z,1020.00
2019-01-05T11:42:31.891Z,1032.00
2019-01-05T11:43:31.128Z,1080.00
2019-01-05T11:44:31.043Z,916.00
2019-01-05T11:45:30.959Z,920.00
2019-01-05T11:46:30.877Z,1016.00
2019-01-05T11:47:30.796Z,952.00
2019-01-05T11:48:30.715Z,1124.00
2019-01-05T11:49:30.631Z,1204.00
2019-01-05T11:50:30.550Z,1112.00
2019-01-05T11:51:30.467Z,1048.00
2019-01-05T11:52:30.386Z,1036.00
2019-01-05T11:53:30.304Z,1200.00
2019-01-05T11:54:30.222Z,1184.00
2019-01-05T11:55:30.139Z,1100.00
2019-01-05T11:56:30.059Z,1044.00
2019-01-05T11:57:29.988Z,1092.00
2019-01-05T11:58:29.904Z,1188.00
2019-01-05T11:59:29.812Z,1464.00
2019-01-05T12:00:29.730Z,1324.00
2019-01-05T12:01:29.648Z,1144.00
2019-01-05T12:02:29.566Z,988.00
2019-01-05T12:03:29.484Z,1052.00
2019-01-05T12:04:29.402Z,1288.00
2019-01-05T12:05:29.334Z,1400.00
2019-01-05T12:06:29.238Z,1260.00
2019-01-05T12:07:29.173Z,1284.00
2019-01-05T12:08:29.074Z,1200.00
2019-01-05T12:09:29.005Z,1108.00
2019-01-05T12:10:28.911Z,1084.00
2019-01-05T12:11:28.829Z,1108.00
2019-01-05T12:12:28.748Z,1124.00
2019-01-05T12:13:28.666Z,1112.00
2019-01-05T12:14:28.584Z,1276.00
2019-01-05T12:15:28.502Z,1244.00
2019-01-05T12:16:28.421Z,1200.00
2019-01-05T12:17:28.337Z,1128.00
2019-01-05T12:18:28.256Z,1244.00
2019-01-05T12:19:28.182Z,1224.00
2019-01-05T12:20:28.097Z,1228.00
2019-01-05T12:21:28.011Z,1308.00
2019-01-05T12:22:27.929Z,1188.00
2019-01-05T12:23:27.848Z,1108.00
2019-01-05T12:24:27.768Z,1184.00
2019-01-05T12:25:27.685Z,1276.00
2019-01-05T12:26:27.603Z,1220.00
2019-01-05T12:27:27.527Z,1196.00
2019-01-05T12:28:27.441Z,1024.00
2019-01-05T12:29:27.357Z,1156.00
2019-01-05T12:30:27.276Z,1204.00
2019-01-05T12:31:27.196Z,1116.00
2019-01-05T12:32:27.113Z,1132.00
2019-01-05T12:33:27.032Z,1184.00
2019-01-05T12:34:26.953Z,1136.00
2019-01-05T12:35:26.869Z,1200.00
2019-01-05T12:36:26.787Z,1372.00
2019-01-05T12:37:26.705Z,1284.00
2019-01-05T12:38:26.623Z,1328.00
2019-01-05T12:39:26.542Z,1504.00
2019-01-05T12:40:26.460Z,1308.00
2019-01-05T12:41:26.382Z,1176.00
2019-01-05T12:42:26.297Z,1080.00
2019-01-05T12:43:26.216Z,924.00
2019-01-05T12:44:26.143Z,1080.00
2019-01-05T12:45:26.052Z,1096.00
2019-01-05T12:46:25.971Z,980.00
2019-01-05T12:47:25.889Z,920.00
2019-01-05T12:48:25.809Z,916.00
2019-01-05T12:49:25.726Z,952.00
2019-01-05T12:50:25.645Z,776.00
2019-01-05T12:51:25.563Z,780.00
2019-01-05T12:52:25.482Z,816.00
2019-01-05T12:53:25.400Z,808.00